Time;durP1;ratioP1;P1;durP2;ratioP2;P2;SDS_P1;SDS_P2;PMS_P1;PMS_P2;Temp;Humidity;BMP_temperature;BMP_pressure;BME280_temperature;BME280_humidity;BME280_pressure;Samples;Min_cycle;Max_cycle;Signal;HPM_P1;HPM_P2
2023/03/29 00:00:43;;;;;;;3.35;2.30;;;8.50;99.90;;;;;;5055010;28;20186;-58
2023/03/29 00:03:11;;;;;;;4.80;2.50;;;8.50;99.90;;;;;;5054846;28;20198;-58
2023/03/29 00:05:39;;;;;;;4.03;2.60;;;8.50;99.90;;;;;;5054644;28;20191;-57
2023/03/29 00:08:06;;;;;;;3.58;2.40;;;8.60;99.90;;;;;;5054533;28;20171;-57
2023/03/29 00:10:33;;;;;;;2.60;2.40;;;8.60;99.90;;;;;;5054575;28;20172;-58
2023/03/29 00:13:00;;;;;;;3.63;2.58;;;8.60;99.90;;;;;;5054616;28;20195;-58
2023/03/29 00:15:26;;;;;;;4.18;2.30;;;8.70;99.90;;;;;;5054582;28;20211;-58
2023/03/29 00:17:52;;;;;;;5.15;2.67;;;8.60;99.90;;;;;;5054141;28;20575;-58
2023/03/29 00:20:18;;;;;;;3.22;2.38;;;8.60;99.90;;;;;;5054362;28;20171;-57
2023/03/29 00:22:45;;;;;;;3.95;2.50;;;8.60;99.90;;;;;;5053975;28;20257;-58
2023/03/29 00:25:12;;;;;;;5.07;2.70;;;8.60;99.90;;;;;;5054639;28;20567;-57
2023/03/29 00:27:38;;;;;;;3.05;2.70;;;8.60;99.90;;;;;;5054108;28;20545;-58
2023/03/29 00:30:06;;;;;;;4.55;2.58;;;8.60;99.90;;;;;;5054438;28;20167;-59
2023/03/29 00:32:32;;;;;;;4.00;2.58;;;8.60;99.90;;;;;;5054109;28;20555;-57
2023/03/29 00:34:59;;;;;;;3.45;2.83;;;8.60;99.90;;;;;;5054004;28;20667;-58
2023/03/29 00:37:29;;;;;;;4.70;2.70;;;8.60;99.90;;;;;;5053935;28;20179;-57
2023/03/29 00:39:56;;;;;;;4.60;2.75;;;8.60;99.90;;;;;;5054027;28;20544;-58
2023/03/29 00:42:23;;;;;;;4.50;2.88;;;8.60;99.90;;;;;;5054067;28;20221;-58
2023/03/29 00:45:29;;;;;;;3.97;2.50;;;8.60;99.90;;;;;;5054278;28;20186;-58
2023/03/29 00:48:01;;;;;;;2.60;2.40;;;8.60;99.90;;;;;;5031368;28;20249;-58
2023/03/29 00:50:41;;;;;;;4.10;2.90;;;8.60;99.90;;;;;;5053936;28;20174;-58
2023/03/29 00:53:12;;;;;;;4.22;2.85;;;8.60;99.90;;;;;;5054049;28;20560;-58
2023/03/29 00:55:54;;;;;;;3.13;2.83;;;8.50;99.90;;;;;;5053743;28;20203;-57
2023/03/29 00:58:48;;;;;;;3.58;2.70;;;8.60;99.90;;;;;;5053982;28;20170;-58
2023/03/29 01:01:18;;;;;;;4.60;2.65;;;8.60;99.90;;;;;;5034558;28;20576;-57
2023/03/29 01:03:52;;;;;;;5.80;2.70;;;8.70;99.90;;;;;;5053660;28;20233;-57
2023/03/29 01:06:21;;;;;;;5.28;3.00;;;8.70;99.90;;;;;;5053597;28;20186;-58
2023/03/29 01:08:52;;;;;;;4.50;3.03;;;8.60;99.90;;;;;;5053848;28;20260;-58
2023/03/29 01:11:23;;;;;;;3.67;3.05;;;8.60;99.90;;;;;;5053678;28;20170;-58
2023/03/29 01:13:58;;;;;;;4.53;2.85;;;8.50;99.90;;;;;;5053656;28;20205;-58
2023/03/29 01:16:27;;;;;;;3.95;2.90;;;8.50;99.90;;;;;;5053496;28;20186;-58
2023/03/29 01:18:53;;;;;;;3.85;2.78;;;8.60;99.90;;;;;;5053316;28;20643;-59
2023/03/29 01:21:28;;;;;;;3.83;2.90;;;8.60;99.90;;;;;;5053258;28;20209;-58
2023/03/29 01:24:32;;;;;;;5.63;3.00;;;8.60;99.90;;;;;;5053412;28;20225;-58
2023/03/29 01:27:21;;;;;;;3.47;2.53;;;8.70;99.90;;;;;;5021341;28;20548;-57
2023/03/29 01:29:56;;;;;;;4.45;3.05;;;8.70;99.90;;;;;;5052768;28;20246;-57
2023/03/29 01:33:03;;;;;;;4.32;3.05;;;8.60;99.90;;;;;;5053432;28;20170;-58
2023/03/29 01:35:43;;;;;;;4.38;2.58;;;8.60;99.90;;;;;;5011255;28;20200;-57
2023/03/29 01:38:23;;;;;;;3.60;2.67;;;8.60;99.90;;;;;;5050225;28;20202;-57
2023/03/29 01:40:49;;;;;;;5.60;2.65;;;8.50;99.90;;;;;;5053296;28;20189;-57
2023/03/29 01:43:22;;;;;;;3.63;2.60;;;8.60;99.90;;;;;;5052958;28;20534;-57
2023/03/29 01:46:03;;;;;;;4.47;2.72;;;8.50;99.90;;;;;;5053132;28;20183;-58
2023/03/29 01:49:10;;;;;;;4.13;2.70;;;8.50;99.90;;;;;;5053219;28;20171;-58
2023/03/29 01:51:48;;;;;;;4.50;2.78;;;8.50;99.90;;;;;;5029926;28;20214;-57
2023/03/29 01:54:36;;;;;;;6.35;3.03;;;8.50;99.90;;;;;;5052887;28;20272;-58
2023/03/29 01:57:04;;;;;;;3.75;2.70;;;8.60;99.90;;;;;;5053142;28;20167;-58
2023/03/29 01:59:33;;;;;;;3.88;2.97;;;8.70;99.90;;;;;;5053006;28;20627;-58
2023/03/29 02:02:01;;;;;;;3.72;2.80;;;8.80;99.90;;;;;;5052848;28;20262;-58
2023/03/29 02:04:33;;;;;;;4.70;3.15;;;8.70;99.90;;;;;;5052811;28;20171;-58
2023/03/29 02:07:00;;;;;;;3.67;2.65;;;8.70;99.90;;;;;;5052775;28;20171;-58
2023/03/29 02:09:28;;;;;;;3.85;2.80;;;8.70;99.90;;;;;;5052647;28;20190;-57
2023/03/29 02:11:59;;;;;;;4.05;2.95;;;8.80;99.90;;;;;;5051566;28;20661;-58
2023/03/29 02:14:25;;;;;;;4.13;2.80;;;8.80;99.90;;;;;;5052826;28;20190;-57
2023/03/29 02:16:51;;;;;;;4.20;2.60;;;8.80;99.90;;;;;;5052702;28;20183;-59
2023/03/29 02:19:18;;;;;;;5.03;3.13;;;8.80;99.90;;;;;;5052604;28;20533;-58
2023/03/29 02:21:55;;;;;;;4.93;3.20;;;8.70;99.90;;;;;;5052909;28;20180;-58
2023/03/29 02:24:23;;;;;;;6.10;3.38;;;8.70;99.90;;;;;;5052544;28;20250;-58
2023/03/29 02:26:49;;;;;;;4.82;3.50;;;8.70;99.90;;;;;;5052673;28;20644;-57
2023/03/29 02:29:15;;;;;;;4.00;3.25;;;8.70;99.90;;;;;;5052656;28;20176;-59
2023/03/29 02:31:54;;;;;;;3.35;3.00;;;8.80;99.90;;;;;;5052468;28;20682;-58
2023/03/29 02:34:29;;;;;;;5.00;2.90;;;8.80;99.90;;;;;;5052488;28;20628;-58
2023/03/29 02:37:00;;;;;;;4.50;3.00;;;8.90;99.90;;;;;;5052667;28;20541;-58
2023/03/29 02:39:30;;;;;;;4.70;3.30;;;8.90;99.90;;;;;;5052679;28;20650;-58
2023/03/29 02:41:57;;;;;;;4.03;2.80;;;8.90;99.90;;;;;;5054948;28;20563;-58
2023/03/29 02:44:29;;;;;;;4.93;3.20;;;9.00;99.90;;;;;;5056138;28;20724;-58
2023/03/29 02:46:59;;;;;;;4.00;2.45;;;9.00;99.90;;;;;;5056560;28;20175;-58
2023/03/29 02:49:25;;;;;;;5.78;3.08;;;8.90;99.90;;;;;;5056444;28;20168;-58
2023/03/29 02:51:55;;;;;;;4.30;2.95;;;8.90;99.90;;;;;;5055941;28;20534;-59
2023/03/29 02:54:24;;;;;;;4.55;3.28;;;8.90;99.90;;;;;;5055968;28;20232;-57
2023/03/29 02:57:05;;;;;;;4.78;3.00;;;8.90;99.90;;;;;;5055918;28;20170;-58
2023/03/29 02:59:32;;;;;;;3.90;3.08;;;8.90;99.90;;;;;;5056080;28;20531;-58
2023/03/29 03:01:58;;;;;;;4.88;3.38;;;8.90;99.90;;;;;;5055979;28;20529;-58
2023/03/29 03:04:24;;;;;;;3.60;3.10;;;9.00;99.90;;;;;;5055952;28;20593;-58
2023/03/29 03:06:50;;;;;;;3.05;2.75;;;9.00;99.90;;;;;;5055924;28;20167;-57
2023/03/29 03:09:17;;;;;;;3.42;2.95;;;9.00;99.90;;;;;;5056447;28;20187;-57
2023/03/29 03:11:42;;;;;;;5.15;3.33;;;8.90;99.90;;;;;;5055637;28;20645;-57
2023/03/29 03:14:08;;;;;;;4.55;3.70;;;8.90;99.90;;;;;;5056071;28;20214;-58
2023/03/29 03:16:34;;;;;;;5.13;3.10;;;8.90;99.90;;;;;;5055711;28;20209;-58
2023/03/29 03:19:00;;;;;;;4.30;3.58;;;8.90;99.90;;;;;;5055841;28;20170;-57
2023/03/29 03:21:27;;;;;;;4.97;3.10;;;9.00;99.90;;;;;;5055524;28;20262;-57
2023/03/29 03:23:53;;;;;;;4.22;3.40;;;9.10;99.90;;;;;;5055608;28;20238;-57
2023/03/29 03:26:19;;;;;;;3.65;3.20;;;9.00;99.90;;;;;;5055255;28;20636;-57
2023/03/29 03:28:45;;;;;;;4.35;3.22;;;9.00;99.90;;;;;;5055617;28;20189;-58
2023/03/29 03:31:14;;;;;;;4.68;3.20;;;9.00;99.90;;;;;;5055519;28;20179;-57
2023/03/29 03:33:40;;;;;;;6.10;3.22;;;9.10;99.90;;;;;;5055352;28;20177;-58
2023/03/29 03:36:08;;;;;;;4.97;3.40;;;9.00;99.90;;;;;;5055133;28;20211;-57
2023/03/29 03:38:36;;;;;;;4.50;3.40;;;9.00;99.90;;;;;;5055084;28;20186;-58
2023/03/29 03:41:02;;;;;;;4.60;3.20;;;9.00;99.90;;;;;;5055340;28;20183;-57
2023/03/29 03:43:28;;;;;;;3.90;3.20;;;9.00;99.90;;;;;;5055283;28;20739;-58
2023/03/29 03:45:55;;;;;;;4.20;3.60;;;9.00;99.90;;;;;;5055171;28;20187;-58
2023/03/29 03:48:22;;;;;;;6.63;2.72;;;9.00;99.90;;;;;;5055105;28;20231;-58
2023/03/29 03:50:52;;;;;;;10.80;3.80;;;8.90;99.90;;;;;;5055033;28;20307;-57
2023/03/29 03:53:20;;;;;;;5.30;3.42;;;8.90;99.90;;;;;;5054282;28;20184;-57
2023/03/29 03:55:54;;;;;;;15.75;4.53;;;9.00;99.90;;;;;;5054968;28;20214;-57
2023/03/29 03:58:21;;;;;;;17.00;3.67;;;9.00;99.90;;;;;;5055083;28;20179;-57
2023/03/29 04:00:48;;;;;;;4.13;3.47;;;9.00;99.90;;;;;;5054899;28;20177;-58
2023/03/29 04:03:15;;;;;;;4.45;2.97;;;9.00;99.90;;;;;;5054741;28;20252;-57
2023/03/29 04:05:42;;;;;;;4.32;3.25;;;9.00;99.90;;;;;;5054525;28;20179;-58
2023/03/29 04:08:08;;;;;;;4.10;3.38;;;9.00;99.90;;;;;;5054754;28;20183;-58
2023/03/29 04:10:34;;;;;;;4.30;3.00;;;9.00;99.90;;;;;;5054558;28;20163;-58
2023/03/29 04:13:04;;;;;;;4.53;3.08;;;9.00;99.90;;;;;;5054568;28;20183;-58
2023/03/29 04:15:31;;;;;;;3.28;2.97;;;9.00;99.90;;;;;;5054410;28;20191;-58
2023/03/29 04:17:58;;;;;;;4.90;3.42;;;9.00;99.90;;;;;;5054534;28;20179;-58
2023/03/29 04:20:24;;;;;;;4.13;3.28;;;9.00;99.90;;;;;;5054363;28;20277;-57
2023/03/29 04:22:50;;;;;;;4.82;3.38;;;9.10;99.90;;;;;;5054333;28;20223;-57
2023/03/29 04:25:16;;;;;;;4.53;3.30;;;9.10;99.90;;;;;;5054433;28;20183;-57
2023/03/29 04:27:43;;;;;;;5.13;3.50;;;9.10;99.90;;;;;;5053933;28;20179;-58
2023/03/29 04:30:10;;;;;;;4.70;3.85;;;9.10;99.90;;;;;;5053465;28;20228;-57
2023/03/29 04:32:36;;;;;;;4.90;3.88;;;9.10;99.90;;;;;;5053700;28;20182;-58
2023/03/29 04:35:03;;;;;;;4.40;3.30;;;9.10;99.90;;;;;;5053452;28;20207;-57
2023/03/29 04:37:30;;;;;;;4.50;3.75;;;9.00;99.90;;;;;;5054113;28;20186;-58
2023/03/29 04:39:59;;;;;;;5.10;3.63;;;9.00;99.90;;;;;;5054282;28;20317;-58
2023/03/29 04:42:25;;;;;;;8.27;3.72;;;9.10;99.90;;;;;;5054103;28;20175;-57
2023/03/29 04:44:52;;;;;;;5.93;3.65;;;9.10;99.90;;;;;;5053968;28;20206;-59
2023/03/29 04:47:18;;;;;;;4.95;3.70;;;9.10;99.90;;;;;;5053907;28;20666;-58
2023/03/29 04:49:44;;;;;;;5.18;4.32;;;9.20;99.90;;;;;;5053729;28;20258;-58
2023/03/29 04:52:13;;;;;;;5.13;3.13;;;9.10;99.90;;;;;;5053926;28;20214;-57
2023/03/29 04:54:39;;;;;;;5.53;3.85;;;9.10;99.90;;;;;;5053623;28;20695;-58
2023/03/29 04:57:06;;;;;;;4.35;3.38;;;9.10;99.90;;;;;;5053697;28;20194;-58
2023/03/29 04:59:31;;;;;;;6.60;3.83;;;9.10;99.90;;;;;;5053151;28;20664;-58
2023/03/29 05:01:58;;;;;;;7.05;3.80;;;9.20;99.90;;;;;;5053381;28;20179;-58
2023/03/29 05:04:24;;;;;;;5.97;3.55;;;9.30;99.90;;;;;;5052336;28;20593;-58
2023/03/29 05:06:49;;;;;;;4.72;3.50;;;9.30;99.90;;;;;;5053556;28;20239;-59
2023/03/29 05:09:15;;;;;;;5.25;3.47;;;9.20;99.90;;;;;;5053575;28;20236;-59
2023/03/29 05:11:42;;;;;;;3.85;3.45;;;9.10;99.90;;;;;;5053634;28;20174;-58
2023/03/29 05:14:08;;;;;;;9.57;3.78;;;9.20;99.90;;;;;;5053464;28;20183;-59
2023/03/29 05:16:34;;;;;;;23.70;4.78;;;9.20;99.90;;;;;;5053323;28;20199;-59
2023/03/29 05:19:00;;;;;;;4.43;3.50;;;9.20;99.90;;;;;;5053179;28;20182;-59
2023/03/29 05:21:27;;;;;;;5.13;3.58;;;9.10;99.90;;;;;;5053446;28;20179;-59
2023/03/29 05:23:53;;;;;;;4.97;3.92;;;9.10;99.90;;;;;;5053217;28;20233;-59
2023/03/29 05:26:21;;;;;;;4.43;3.60;;;9.10;99.90;;;;;;5053264;28;20176;-59
2023/03/29 05:28:47;;;;;;;4.97;3.60;;;9.10;99.90;;;;;;5053139;28;20250;-58
2023/03/29 05:31:13;;;;;;;5.13;3.60;;;9.10;99.90;;;;;;5053076;28;20171;-59
2023/03/29 05:33:39;;;;;;;6.78;4.28;;;9.20;99.90;;;;;;5053103;28;20175;-59
2023/03/29 05:36:15;;;;;;;4.53;4.00;;;9.20;99.90;;;;;;5053183;28;20730;-59
2023/03/29 05:38:43;;;;;;;8.05;3.53;;;9.30;99.90;;;;;;5053047;28;20612;-59
2023/03/29 05:41:14;;;;;;;8.73;4.07;;;9.20;99.90;;;;;;5053201;28;20184;-59
2023/03/29 05:43:40;;;;;;;5.72;4.20;;;9.20;99.90;;;;;;5053252;28;20178;-59
2023/03/29 05:46:06;;;;;;;5.18;4.13;;;9.30;99.90;;;;;;5052962;28;20193;-59
2023/03/29 05:48:32;;;;;;;7.45;4.53;;;9.30;99.90;;;;;;5053122;28;20604;-59
2023/03/29 05:50:58;;;;;;;5.57;4.20;;;9.30;99.90;;;;;;5053054;28;20699;-58
2023/03/29 05:53:25;;;;;;;6.18;3.95;;;9.20;99.90;;;;;;5053338;28;20178;-59
2023/03/29 05:55:52;;;;;;;6.93;4.30;;;9.30;99.90;;;;;;5052863;28;20325;-59
2023/03/29 05:58:20;;;;;;;5.25;3.85;;;9.30;99.90;;;;;;5052810;28;20549;-59
2023/03/29 06:00:48;;;;;;;6.00;3.92;;;9.30;99.90;;;;;;5052976;28;20258;-58
2023/03/29 06:03:17;;;;;;;5.53;4.13;;;9.40;99.90;;;;;;5052968;28;20171;-59
2023/03/29 06:05:45;;;;;;;5.15;3.92;;;9.30;99.90;;;;;;5053048;28;20595;-59
2023/03/29 06:08:11;;;;;;;4.43;3.88;;;9.40;99.90;;;;;;5052836;28;20316;-59
2023/03/29 06:10:37;;;;;;;3.97;3.55;;;9.40;99.90;;;;;;5052884;28;20633;-59
2023/03/29 06:13:04;;;;;;;5.00;4.00;;;9.40;99.90;;;;;;5052554;28;20224;-59
2023/03/29 06:15:31;;;;;;;10.52;4.45;;;9.40;99.90;;;;;;5053192;28;20348;-59
2023/03/29 06:17:58;;;;;;;4.25;3.47;;;9.40;99.90;;;;;;5056811;28;20206;-59
2023/03/29 06:20:24;;;;;;;6.13;4.10;;;9.40;99.90;;;;;;5056802;28;20266;-59
2023/03/29 06:22:49;;;;;;;5.18;4.22;;;9.50;99.90;;;;;;5056611;28;20768;-59
2023/03/29 06:25:16;;;;;;;5.38;4.00;;;9.50;99.90;;;;;;5056562;28;20186;-59
2023/03/29 06:27:42;;;;;;;5.15;4.00;;;9.60;99.90;;;;;;5056425;28;20533;-59
2023/03/29 06:30:08;;;;;;;5.50;3.92;;;9.60;99.90;;;;;;5056656;28;20168;-59
2023/03/29 06:32:34;;;;;;;6.35;4.32;;;9.70;99.90;;;;;;5056625;28;20179;-59
2023/03/29 06:35:01;;;;;;;7.45;4.25;;;9.70;99.90;;;;;;5056411;28;20210;-59
2023/03/29 06:37:27;;;;;;;5.22;4.15;;;9.70;99.90;;;;;;5056335;28;20183;-59
2023/03/29 06:39:53;;;;;;;5.00;4.03;;;9.80;99.90;;;;;;5055174;28;20167;-59
2023/03/29 06:42:19;;;;;;;9.07;4.65;;;9.80;99.90;;;;;;5056229;28;20187;-59
2023/03/29 06:44:45;;;;;;;4.72;3.85;;;9.90;99.90;;;;;;5056396;28;20180;-59
2023/03/29 06:47:16;;;;;;;6.72;4.47;;;9.90;99.90;;;;;;5056546;28;20520;-59
2023/03/29 06:49:42;;;;;;;4.93;4.00;;;10.00;99.90;;;;;;5055910;28;20171;-59
2023/03/29 06:52:08;;;;;;;5.10;4.30;;;10.00;99.90;;;;;;5056108;28;20203;-59
2023/03/29 06:54:34;;;;;;;11.25;4.72;;;10.00;99.90;;;;;;5055805;28;20203;-59
2023/03/29 06:57:00;;;;;;;6.45;4.47;;;10.00;99.90;;;;;;5054722;28;20667;-59
2023/03/29 06:59:27;;;;;;;6.95;4.53;;;10.00;99.90;;;;;;5056057;28;20175;-58
2023/03/29 07:01:53;;;;;;;5.53;4.22;;;10.00;99.90;;;;;;5056013;28;20514;-59
2023/03/29 07:04:21;;;;;;;5.65;3.95;;;10.10;99.90;;;;;;5055837;28;20266;-59
2023/03/29 07:06:50;;;;;;;5.28;4.10;;;10.20;99.90;;;;;;5055873;28;20183;-59
2023/03/29 07:09:16;;;;;;;6.55;4.05;;;10.20;99.90;;;;;;5055698;28;20180;-59
2023/03/29 07:11:42;;;;;;;7.65;4.57;;;10.20;99.90;;;;;;5056202;28;20182;-59
2023/03/29 07:14:08;;;;;;;5.95;4.25;;;10.20;99.90;;;;;;5055764;28;20663;-59
2023/03/29 07:16:36;;;;;;;7.18;4.55;;;10.30;99.90;;;;;;5055602;28;20215;-58
2023/03/29 07:19:02;;;;;;;8.63;4.75;;;10.40;99.90;;;;;;5055584;28;20187;-59
2023/03/29 07:21:29;;;;;;;5.80;4.30;;;10.40;99.90;;;;;;5055568;28;20187;-59
2023/03/29 07:23:57;;;;;;;6.00;4.32;;;10.30;99.90;;;;;;5055622;28;20564;-59
2023/03/29 07:26:23;;;;;;;5.53;4.55;;;10.30;99.90;;;;;;5055596;28;20187;-59
2023/03/29 07:28:50;;;;;;;5.80;4.25;;;10.30;99.90;;;;;;5054514;28;20253;-59
2023/03/29 07:31:16;;;;;;;6.88;4.80;;;10.30;99.90;;;;;;5055529;28;20579;-59
2023/03/29 07:33:43;;;;;;;5.03;4.50;;;10.40;99.90;;;;;;5055265;28;20637;-59
2023/03/29 07:36:09;;;;;;;7.80;5.25;;;10.40;99.90;;;;;;5055222;28;20211;-59
2023/03/29 07:38:35;;;;;;;6.60;4.68;;;10.30;99.90;;;;;;5055110;28;20175;-59
2023/03/29 07:41:06;;;;;;;6.68;4.78;;;10.30;99.90;;;;;;5055423;28;20176;-59
2023/03/29 07:43:36;;;;;;;6.07;5.03;;;10.40;99.90;;;;;;5055247;28;20224;-58
2023/03/29 07:46:03;;;;;;;6.40;4.70;;;10.30;99.90;;;;;;5055220;28;20190;-59
2023/03/29 07:48:29;;;;;;;6.50;5.30;;;10.30;99.90;;;;;;5055165;28;20175;-59
2023/03/29 07:50:55;;;;;;;8.13;5.60;;;10.40;99.90;;;;;;5055034;28;20175;-59
2023/03/29 07:53:21;;;;;;;6.50;4.80;;;10.40;99.90;;;;;;5054821;28;20258;-59
2023/03/29 07:55:48;;;;;;;9.73;5.80;;;10.40;99.90;;;;;;5054928;28;20207;-59
2023/03/29 07:58:14;;;;;;;7.57;5.18;;;10.40;99.90;;;;;;5054798;28;20664;-58
2023/03/29 08:00:42;;;;;;;5.65;4.88;;;10.50;99.90;;;;;;5054933;28;20180;-59
2023/03/29 08:03:10;;;;;;;8.52;5.40;;;10.60;99.90;;;;;;5054687;28;20168;-59
2023/03/29 08:05:36;;;;;;;7.80;4.90;;;10.60;99.90;;;;;;5054470;28;20224;-59
2023/03/29 08:08:02;;;;;;;7.78;5.00;;;10.80;99.90;;;;;;5054777;28;20262;-59
2023/03/29 08:10:28;;;;;;;7.30;4.80;;;10.70;99.90;;;;;;5054621;28;20655;-59
2023/03/29 08:12:54;;;;;;;7.30;5.00;;;10.70;99.90;;;;;;5054710;28;20206;-59
2023/03/29 08:15:19;;;;;;;6.70;4.90;;;10.70;99.90;;;;;;5054547;28;20210;-58
2023/03/29 08:17:45;;;;;;;6.82;4.88;;;10.80;99.90;;;;;;5054487;28;20179;-58
2023/03/29 08:20:13;;;;;;;7.35;5.25;;;10.80;99.90;;;;;;5054426;28;20211;-58
2023/03/29 08:22:40;;;;;;;7.13;5.20;;;10.90;99.90;;;;;;5054105;28;20262;-59
2023/03/29 08:25:06;;;;;;;5.65;4.60;;;11.00;99.90;;;;;;5054466;28;20656;-59
2023/03/29 08:27:32;;;;;;;7.57;5.00;;;11.10;99.90;;;;;;5054382;28;20238;-59
2023/03/29 08:29:58;;;;;;;5.55;4.95;;;11.20;99.90;;;;;;5054193;28;20239;-58
2023/03/29 08:32:24;;;;;;;6.35;4.60;;;11.30;99.90;;;;;;5053003;28;20210;-59
2023/03/29 08:34:50;;;;;;;6.25;4.43;;;11.40;99.90;;;;;;5054015;28;20242;-59
2023/03/29 08:37:16;;;;;;;7.25;5.03;;;11.60;99.90;;;;;;5054387;28;20636;-60
2023/03/29 08:39:41;;;;;;;6.03;4.57;;;11.90;99.90;;;;;;5054007;28;20183;-59
2023/03/29 08:42:26;;;;;;;17.05;5.40;;;12.00;99.90;;;;;;5054192;28;20579;-59
2023/03/29 08:45:09;;;;;;;11.48;4.50;;;12.20;99.90;;;;;;5053978;28;20233;-59
2023/03/29 08:47:51;;;;;;;7.15;4.90;;;12.30;99.90;;;;;;5054185;28;20817;-58
2023/03/29 08:50:21;;;;;;;6.35;4.05;;;12.40;99.90;;;;;;5053761;28;20711;-59
2023/03/29 08:52:59;;;;;;;5.90;4.32;;;12.50;99.90;;;;;;5054029;28;20174;-59
2023/03/29 08:55:44;;;;;;;8.18;4.30;;;12.60;99.90;;;;;;5053711;28;20195;-59
2023/03/29 08:58:16;;;;;;;5.85;3.97;;;12.70;99.90;;;;;;5053641;28;20516;-59
2023/03/29 09:00:48;;;;;;;4.90;4.10;;;12.60;99.90;;;;;;5053851;28;20159;-59
2023/03/29 09:03:23;;;;;;;6.60;4.28;;;12.70;99.90;;;;;;5053921;28;20178;-59
2023/03/29 09:06:09;;;;;;;5.85;4.20;;;12.70;99.90;;;;;;5053766;28;20179;-59
2023/03/29 09:08:47;;;;;;;8.25;4.45;;;12.70;99.90;;;;;;5053450;28;20659;-59
2023/03/29 09:11:51;;;;;;;6.45;4.30;;;12.80;99.90;;;;;;5053476;28;20701;-59
2023/03/29 09:14:35;;;;;;;5.35;4.40;;;12.90;99.90;;;;;;5053560;28;20167;-58
2023/03/29 09:17:34;;;;;;;7.43;4.03;;;12.90;99.90;;;;;;5053810;28;20221;-59
2023/03/29 09:20:06;;;;;;;6.30;4.32;;;13.00;99.90;;;;;;5053337;28;20182;-58
2023/03/29 09:22:40;;;;;;;6.25;4.00;;;13.00;99.90;;;;;;5053194;28;20167;-57
2023/03/29 09:25:24;;;;;;;6.82;4.72;;;13.20;99.90;;;;;;5053332;28;20228;-58
2023/03/29 09:28:16;;;;;;;5.97;4.13;;;13.30;99.90;;;;;;5053438;28;20171;-59
2023/03/29 09:30:56;;;;;;;6.80;4.28;;;13.20;99.90;;;;;;5053236;28;20167;-59
2023/03/29 09:33:28;;;;;;;7.25;4.60;;;13.30;99.90;;;;;;5053246;28;20236;-58
2023/03/29 09:36:06;;;;;;;5.35;4.05;;;13.40;99.90;;;;;;5053346;28;20203;-59
2023/03/29 09:38:41;;;;;;;5.53;4.35;;;13.50;99.90;;;;;;5053209;28;20178;-59
2023/03/29 09:41:29;;;;;;;5.40;4.32;;;13.60;99.90;;;;;;5053141;28;20167;-59
2023/03/29 09:43:58;;;;;;;7.00;4.32;;;13.80;99.90;;;;;;5053138;28;20172;-59
2023/03/29 09:46:40;;;;;;;6.45;4.65;;;14.20;99.90;;;;;;5053013;28;20171;-58
2023/03/29 09:49:11;;;;;;;5.47;4.53;;;14.30;99.90;;;;;;5053164;28;20246;-58
2023/03/29 09:51:38;;;;;;;8.68;5.22;;;14.30;99.90;;;;;;5052492;28;20195;-58
2023/03/29 09:54:03;;;;;;;11.32;4.32;;;14.40;99.90;;;;;;5052956;28;20185;-59
2023/03/29 09:56:29;;;;;;;6.97;4.53;;;14.40;99.90;;;;;;5052804;28;20294;-59
2023/03/29 09:58:55;;;;;;;5.00;4.10;;;14.50;99.90;;;;;;5053087;28;20171;-59
2023/03/29 10:01:21;;;;;;;5.20;4.70;;;14.60;99.90;;;;;;5053037;28;20172;-59
2023/03/29 10:03:51;;;;;;;7.13;4.40;;;14.60;99.90;;;;;;5052876;28;20198;-59
2023/03/29 10:06:19;;;;;;;7.35;4.05;;;14.80;99.90;;;;;;5052909;28;20180;-59
2023/03/29 10:08:57;;;;;;;6.57;4.50;;;14.90;99.90;;;;;;5052799;28;20190;-58
2023/03/29 10:11:31;;;;;;;6.47;4.05;;;15.20;99.90;;;;;;5053112;28;20167;-58
2023/03/29 10:14:05;;;;;;;4.97;4.57;;;15.30;99.90;;;;;;5052926;28;20174;-58
2023/03/29 10:16:38;;;;;;;5.47;4.05;;;15.40;99.90;;;;;;5052703;28;20610;-58
2023/03/29 10:19:21;;;;;;;6.38;4.07;;;15.50;99.90;;;;;;5052766;28;20163;-59
2023/03/29 10:21:48;;;;;;;3.78;3.25;;;15.50;99.90;;;;;;5052867;28;20179;-59
2023/03/29 10:24:19;;;;;;;4.85;4.03;;;15.40;99.90;;;;;;5052670;28;20227;-58
2023/03/29 10:26:45;;;;;;;5.78;4.43;;;15.40;99.90;;;;;;5052867;28;20233;-58
2023/03/29 10:29:12;;;;;;;4.40;3.90;;;15.30;99.90;;;;;;5052608;28;20262;-58
2023/03/29 10:31:41;;;;;;;6.68;4.10;;;15.30;99.90;;;;;;5052489;28;20541;-58
2023/03/29 10:34:11;;;;;;;4.32;3.92;;;15.30;99.90;;;;;;5052519;28;20263;-58
2023/03/29 10:36:40;;;;;;;5.32;3.85;;;15.30;99.90;;;;;;5052695;28;20210;-59
2023/03/29 10:39:09;;;;;;;8.13;4.50;;;15.40;99.90;;;;;;5052650;28;20168;-59
2023/03/29 10:41:35;;;;;;;5.47;3.95;;;15.50;99.90;;;;;;5052423;28;20625;-58
2023/03/29 10:44:02;;;;;;;4.53;3.90;;;15.70;99.90;;;;;;5052448;28;20641;-58
2023/03/29 10:46:29;;;;;;;4.75;3.78;;;15.90;99.90;;;;;;5052320;28;20207;-59
2023/03/29 10:49:09;;;;;;;6.28;4.40;;;16.00;99.90;;;;;;5052561;28;20261;-58
2023/03/29 10:51:35;;;;;;;12.20;4.28;;;16.00;99.90;;;;;;5052528;28;20171;-58
2023/03/29 10:54:02;;;;;;;6.40;3.88;;;15.90;99.90;;;;;;5052412;28;20186;-58
2023/03/29 10:56:40;;;;;;;5.95;3.88;;;16.10;99.90;;;;;;5052368;28;20260;-58
2023/03/29 10:59:18;;;;;;;6.70;3.28;;;16.00;99.90;;;;;;5052738;28;20171;-59
2023/03/29 11:02:05;;;;;;;4.65;3.17;;;16.00;99.90;;;;;;5052501;28;20175;-59
2023/03/29 11:04:47;;;;;;;5.68;3.58;;;15.90;99.90;;;;;;5055640;28;20175;-58
2023/03/29 11:07:33;;;;;;;4.40;3.42;;;16.00;99.90;;;;;;5055837;28;20171;-58
2023/03/29 11:10:14;;;;;;;4.90;3.70;;;16.30;99.90;;;;;;5055944;28;20171;-58
2023/03/29 11:12:52;;;;;;;4.65;3.33;;;16.40;99.90;;;;;;5055808;28;20245;-59
2023/03/29 11:15:45;;;;;;;4.68;3.30;;;16.40;99.90;;;;;;5055743;28;20199;-59
2023/03/29 11:18:44;;;;;;;5.40;3.00;;;16.60;99.90;;;;;;5055758;28;20182;-58
2023/03/29 11:21:25;;;;;;;5.85;3.40;;;16.60;99.90;;;;;;5055638;28;20172;-59
2023/03/29 11:24:01;;;;;;;3.25;2.75;;;16.70;99.90;;;;;;5055589;28;20219;-60
2023/03/29 11:26:43;;;;;;;4.88;3.47;;;16.90;99.90;;;;;;5055736;28;20577;-59
2023/03/29 11:29:33;;;;;;;3.22;2.67;;;16.70;99.90;;;;;;5055636;28;20167;-59
2023/03/29 11:32:17;;;;;;;4.80;3.00;;;16.80;99.90;;;;;;5055405;28;20172;-59
2023/03/29 11:34:57;;;;;;;3.85;2.70;;;16.80;99.90;;;;;;5055515;28;20207;-59
2023/03/29 11:38:02;;;;;;;3.75;2.80;;;16.80;99.90;;;;;;5055327;28;20175;-59
2023/03/29 11:40:35;;;;;;;3.33;2.55;;;16.50;99.90;;;;;;5032899;28;20210;-59
2023/03/29 11:43:07;;;;;;;3.92;2.80;;;16.50;99.90;;;;;;5033007;28;20692;-59
2023/03/29 11:45:42;;;;;;;3.45;2.55;;;16.50;99.90;;;;;;5045430;28;20564;-59
2023/03/29 11:48:16;;;;;;;5.50;2.80;;;16.50;99.90;;;;;;5055163;28;20186;-59
2023/03/29 11:50:51;;;;;;;3.03;2.20;;;16.70;99.90;;;;;;5055183;28;20205;-59
2023/03/29 11:53:46;;;;;;;3.05;2.50;;;16.70;99.90;;;;;;5054988;28;20505;-59
2023/03/29 11:56:18;;;;;;;2.90;2.15;;;16.90;99.90;;;;;;5044393;28;20272;-59
2023/03/29 11:58:49;;;;;;;3.03;2.28;;;16.90;99.90;;;;;;5055018;28;20640;-59
2023/03/29 12:01:27;;;;;;;2.53;2.33;;;17.00;99.90;;;;;;5054756;28;20532;-60
2023/03/29 12:03:57;;;;;;;2.67;2.00;;;17.10;99.90;;;;;;5054869;28;20317;-59
2023/03/29 12:06:30;;;;;;;4.55;2.13;;;17.10;99.90;;;;;;5054946;28;20237;-58
2023/03/29 12:09:24;;;;;;;3.63;2.20;;;17.00;99.90;;;;;;5054825;28;20266;-59
2023/03/29 12:12:14;;;;;;;3.55;1.83;;;17.00;99.90;;;;;;5054593;28;20167;-58
2023/03/29 12:15:03;;;;;;;3.28;2.00;;;16.90;99.90;;;;;;5054486;28;20179;-58
2023/03/29 12:18:12;;;;;;;2.30;1.67;;;16.90;99.90;;;;;;5051315;28;20266;-58
2023/03/29 12:20:39;;;;;;;1.95;1.83;;;17.00;99.90;;;;;;5051854;28;20179;-57
2023/03/29 12:23:07;;;;;;;2.15;1.95;;;16.90;99.90;;;;;;5054496;28;20265;-58
2023/03/29 12:25:42;;;;;;;3.25;1.70;;;16.80;99.90;;;;;;5054458;28;20183;-57
2023/03/29 12:28:08;;;;;;;4.03;1.63;;;16.80;99.90;;;;;;5054423;28;20171;-57
2023/03/29 12:31:05;;;;;;;2.92;2.10;;;16.90;99.90;;;;;;5054148;28;20179;-57
2023/03/29 12:33:30;;;;;;;3.20;1.90;;;17.00;99.90;;;;;;5054384;28;20168;-58
2023/03/29 12:36:17;;;;;;;1.70;1.40;;;17.10;99.90;;;;;;5054200;28;20214;-58
2023/03/29 12:38:43;;;;;;;4.00;1.60;;;17.30;99.90;;;;;;5054086;28;20178;-57
2023/03/29 12:41:18;;;;;;;3.78;1.52;;;17.60;99.90;;;;;;5053941;28;20262;-57
2023/03/29 12:43:44;;;;;;;3.45;1.73;;;17.70;99.90;;;;;;5054241;28;20640;-58
2023/03/29 12:46:18;;;;;;;3.38;2.10;;;17.80;99.90;;;;;;5054111;28;20229;-58
2023/03/29 12:48:46;;;;;;;3.90;1.80;;;17.90;99.90;;;;;;5054040;28;20221;-58
2023/03/29 12:51:19;;;;;;;2.65;2.30;;;18.00;99.90;;;;;;5053908;28;20186;-57
2023/03/29 12:53:49;;;;;;;3.38;2.50;;;18.00;99.90;;;;;;5053956;28;20167;-58
2023/03/29 12:56:19;;;;;;;3.65;2.20;;;18.10;99.90;;;;;;5054091;28;20206;-58
2023/03/29 12:59:06;;;;;;;4.15;2.58;;;18.20;99.90;;;;;;5053813;28;20175;-57
2023/03/29 13:01:40;;;;;;;3.10;2.20;;;18.30;99.90;;;;;;5053724;28;20524;-57
2023/03/29 13:04:17;;;;;;;4.90;2.22;;;18.30;99.90;;;;;;5053626;28;20179;-58
2023/03/29 13:06:45;;;;;;;2.70;2.10;;;18.40;99.90;;;;;;5053767;28;20183;-58
2023/03/29 13:09:20;;;;;;;2.40;1.80;;;18.30;99.90;;;;;;5053675;28;20167;-58
2023/03/29 13:11:54;;;;;;;2.10;1.88;;;18.50;99.90;;;;;;5053464;28;20178;-57
2023/03/29 13:14:23;;;;;;;1.98;1.55;;;18.50;99.90;;;;;;5053431;28;20171;-57